createdAt,value
2022-10-22T00:02:10.583Z,97892.06
2022-10-22T00:07:12.535Z,97876.88
2022-10-22T00:12:16.646Z,97870.91
2022-10-22T00:17:18.450Z,97880.75
2022-10-22T00:22:20.387Z,97877.56
2022-10-22T00:27:22.204Z,97867.56
2022-10-22T00:32:24.154Z,97853.47
2022-10-22T00:37:26.524Z,97858.84
2022-10-22T00:42:31.812Z,97863.22
2022-10-22T00:47:39.216Z,97864.00
2022-10-22T00:52:43.588Z,97853.53
2022-10-22T00:57:48.267Z,97852.69
2022-10-22T01:02:52.104Z,97871.69
2022-10-22T01:07:56.284Z,97869.47
2022-10-22T01:13:10.135Z,97863.63
2022-10-22T01:19:01.227Z,97867.44
2022-10-22T01:24:22.380Z,97871.22
2022-10-22T01:29:52.942Z,97866.81
2022-10-22T01:35:01.060Z,97859.19
2022-10-22T01:40:05.570Z,97854.16
2022-10-22T01:45:12.926Z,97857.75
2022-10-22T01:50:17.613Z,97849.34
2022-10-22T01:55:35.846Z,97851.94
2022-10-22T02:00:44.797Z,97851.31
2022-10-22T02:05:53.581Z,97852.31
2022-10-22T02:10:57.564Z,97849.47
2022-10-22T02:16:01.628Z,97849.22
2022-10-22T02:21:03.567Z,97853.81
2022-10-22T02:26:15.536Z,97838.38
2022-10-22T02:31:23.783Z,97841.94
2022-10-22T02:36:26.327Z,97846.34
2022-10-22T02:41:28.421Z,97846.34
2022-10-22T02:46:30.290Z,97853.19
2022-10-22T02:51:32.289Z,97846.53
2022-10-22T02:56:34.364Z,97848.72
2022-10-22T03:01:36.189Z,97842.66
2022-10-22T03:06:38.002Z,97847.88
2022-10-22T03:11:39.799Z,97847.06
2022-10-22T03:16:41.593Z,97859.88
2022-10-22T03:21:53.632Z,97854.06
2022-10-22T03:26:55.542Z,97859.03
2022-10-22T03:31:57.396Z,97853.81
2022-10-22T03:37:01.707Z,97850.22
2022-10-22T03:42:05.048Z,97867.47
2022-10-22T03:47:07.174Z,97875.09
2022-10-22T03:52:12.483Z,97866.28
2022-10-22T03:57:14.852Z,97880.72
2022-10-22T04:02:17.025Z,97869.31
2022-10-22T04:07:18.809Z,97868.50
2022-10-22T04:12:20.668Z,97865.09
2022-10-22T04:17:23.021Z,97858.28
2022-10-22T04:22:24.803Z,97870.69
2022-10-22T04:27:30.195Z,97878.88
2022-10-22T04:32:32.240Z,97886.06
2022-10-22T04:37:34.242Z,97868.81
2022-10-22T04:42:36.218Z,97878.63
2022-10-22T04:47:38.528Z,97876.03
2022-10-22T04:52:40.594Z,97875.22
2022-10-22T04:57:42.641Z,97862.38
2022-10-22T05:02:49.269Z,97865.97
2022-10-22T05:07:51.856Z,97866.97
2022-10-22T05:12:53.842Z,97862.75
2022-10-22T05:17:55.693Z,97875.78
2022-10-22T05:22:57.620Z,97883.59
2022-10-22T05:28:00.333Z,97891.41
2022-10-22T05:33:02.464Z,97904.59
2022-10-22T05:38:04.275Z,97897.78
2022-10-22T05:43:06.233Z,97894.38
2022-10-22T05:48:09.763Z,97895.97
2022-10-22T05:53:12.130Z,97910.63
2022-10-22T05:58:14.982Z,97911.06
2022-10-22T06:03:16.830Z,97916.69
2022-10-22T06:08:19.223Z,97927.53
2022-10-22T06:13:23.041Z,97930.59
2022-10-22T06:18:24.881Z,97932.81
2022-10-22T06:23:26.713Z,97933.44
2022-10-22T06:28:28.901Z,97940.88
2022-10-22T06:33:33.070Z,97945.91
2022-10-22T06:38:35.288Z,97942.94
2022-10-22T06:43:37.409Z,97959.03
2022-10-22T06:48:40.416Z,97958.84
2022-10-22T06:53:42.439Z,97969.06
2022-10-22T06:58:46.734Z,97981.28
2022-10-22T07:03:51.563Z,97988.50
2022-10-22T07:08:58.576Z,97993.69
2022-10-22T07:14:01.266Z,97996.31
2022-10-22T07:19:04.404Z,98000.72
2022-10-22T07:24:06.585Z,98012.75
2022-10-22T07:29:09.985Z,98014.34
2022-10-22T07:34:11.919Z,98013.81
2022-10-22T07:39:13.616Z,98023.81
2022-10-22T07:44:15.384Z,98043.03
2022-10-22T07:49:17.213Z,98044.97
2022-10-22T07:54:19.478Z,98052.84
2022-10-22T07:59:21.386Z,98075.94
2022-10-22T08:04:23.293Z,98063.69
2022-10-22T08:09:25.022Z,98061.91
2022-10-22T08:14:26.982Z,98066.94
2022-10-22T08:19:29.907Z,98066.75
2022-10-22T08:24:31.633Z,98068.34
2022-10-22T08:29:33.411Z,98076.78
2022-10-22T08:34:35.164Z,98072.00
2022-10-22T08:39:37.383Z,98082.06
2022-10-22T08:44:58.958Z,98074.50
2022-10-22T08:50:00.945Z,98074.91
2022-10-22T08:55:04.032Z,98078.94
2022-10-22T09:00:09.678Z,98082.59
2022-10-22T09:05:23.691Z,98075.00
2022-10-22T09:10:29.445Z,98089.91
2022-10-22T09:15:31.631Z,98083.13
2022-10-22T09:20:46.071Z,98084.78
2022-10-22T09:25:51.593Z,98094.50
2022-10-22T09:30:54.060Z,98090.13
2022-10-22T09:35:59.495Z,98089.34
2022-10-22T09:41:04.150Z,98083.38
2022-10-22T09:46:14.923Z,98088.25
2022-10-22T09:51:36.199Z,98093.13
2022-10-22T09:56:42.436Z,98094.94
2022-10-22T10:01:44.806Z,98106.44
2022-10-22T10:06:55.863Z,98099.81
2022-10-22T10:12:29.280Z,98106.47
2022-10-22T10:17:56.552Z,98106.47
2022-10-22T10:23:10.777Z,98116.53
2022-10-22T10:28:21.754Z,98111.38
2022-10-22T10:33:35.826Z,98113.06
2022-10-22T10:38:40.505Z,98121.72
2022-10-22T10:43:54.107Z,98116.09
2022-10-22T10:49:00.569Z,98118.72
2022-10-22T10:54:11.656Z,98122.78
2022-10-22T10:59:43.323Z,98121.16
2022-10-22T11:05:22.522Z,98122.97
2022-10-22T11:10:39.040Z,98133.66
2022-10-22T11:15:44.242Z,98137.50
2022-10-22T11:20:51.892Z,98142.53
2022-10-22T11:25:53.700Z,98142.94
2022-10-22T11:31:03.379Z,98149.34
2022-10-22T11:36:07.682Z,98152.34
2022-10-22T11:41:16.258Z,98148.06
2022-10-22T11:46:17.931Z,98148.06
2022-10-22T11:51:47.263Z,98144.69
2022-10-22T11:56:53.049Z,98144.13
2022-10-22T12:01:56.086Z,98145.34
2022-10-22T12:07:00.949Z,98143.13
2022-10-22T12:12:12.622Z,98137.31
2022-10-22T12:17:16.629Z,98133.69
2022-10-22T12:22:23.980Z,98125.44
2022-10-22T12:27:30.208Z,98126.84
2022-10-22T12:32:37.673Z,98125.44
2022-10-22T12:37:39.658Z,98129.88
2022-10-22T12:42:48.642Z,98127.06
2022-10-22T12:47:53.049Z,98128.25
2022-10-22T12:52:55.875Z,98129.28
2022-10-22T12:57:58.418Z,98125.25
2022-10-22T13:03:05.592Z,98132.69
2022-10-22T13:08:13.297Z,98136.50
2022-10-22T13:13:40.912Z,98136.31
2022-10-22T13:18:44.043Z,98142.16
2022-10-22T13:23:56.966Z,98144.78
2022-10-22T13:29:01.239Z,98146.19
2022-10-22T13:34:09.854Z,98149.59
2022-10-22T13:39:24.873Z,98149.41
2022-10-22T13:44:26.607Z,98164.69
2022-10-22T13:49:28.447Z,98160.66
2022-10-22T13:54:30.361Z,98164.50
2022-10-22T13:59:32.439Z,98161.09
2022-10-22T14:04:36.931Z,98150.63
2022-10-22T14:09:38.706Z,98160.06
2022-10-22T14:14:40.463Z,98163.91
2022-10-22T14:19:45.748Z,98161.69
2022-10-22T14:24:47.489Z,98166.31
2022-10-22T14:29:49.282Z,98164.31
2022-10-22T14:34:51.064Z,98166.72
2022-10-22T14:39:59.785Z,98175.19
2022-10-22T14:45:01.935Z,98170.75
2022-10-22T14:50:04.839Z,98170.75
2022-10-22T14:55:07.251Z,98179.63
2022-10-22T15:00:15.117Z,98183.03
2022-10-22T15:05:17.620Z,98193.31
2022-10-22T15:10:19.342Z,98193.94
2022-10-22T15:15:22.843Z,98195.53
2022-10-22T15:20:25.768Z,98196.53
2022-10-22T15:25:28.701Z,98197.56
2022-10-22T15:30:30.574Z,98206.59
2022-10-22T15:35:32.469Z,98217.47
2022-10-22T15:40:34.185Z,98226.75
2022-10-22T15:45:36.143Z,98229.16
2022-10-22T15:50:39.458Z,98235.16
2022-10-22T15:55:49.483Z,98238.38
2022-10-22T16:00:51.256Z,98251.41
2022-10-22T16:05:57.281Z,98257.19
2022-10-22T16:10:59.383Z,98256.53
2022-10-22T16:16:05.330Z,98259.06
2022-10-22T16:21:12.426Z,98266.84
2022-10-22T16:26:14.856Z,98274.22
2022-10-22T16:31:18.300Z,98279.78
2022-10-22T16:36:21.086Z,98287.75
2022-10-22T16:41:24.569Z,98289.75
2022-10-22T16:46:26.358Z,98306.66
2022-10-22T16:51:28.767Z,98304.09
2022-10-22T16:56:30.614Z,98311.13
2022-10-22T17:01:35.675Z,98311.75
2022-10-22T17:06:39.974Z,98313.19
2022-10-22T17:11:42.646Z,98321.84
2022-10-22T17:16:49.039Z,98318.41
2022-10-22T17:21:51.444Z,98325.25
2022-10-22T17:26:53.297Z,98327.44
2022-10-22T17:31:55.064Z,98336.47
2022-10-22T17:37:00.206Z,98354.94
2022-10-22T17:42:02.029Z,98347.28
2022-10-22T17:47:04.402Z,98355.31
2022-10-22T17:52:06.945Z,98371.38
2022-10-22T17:57:09.386Z,98369.13
2022-10-22T18:02:16.642Z,98377.53
2022-10-22T18:07:18.533Z,98378.09
2022-10-22T18:12:20.879Z,98383.69
2022-10-22T18:17:22.663Z,98385.06
2022-10-22T18:22:24.503Z,98393.28
2022-10-22T18:27:26.293Z,98398.69
2022-10-22T18:32:28.078Z,98397.25
2022-10-22T18:37:31.161Z,98398.25
2022-10-22T18:42:37.775Z,98401.03
2022-10-22T18:47:41.743Z,98395.19
2022-10-22T18:52:43.615Z,98393.75
2022-10-22T18:57:45.702Z,98393.75
2022-10-22T19:02:47.531Z,98388.09
2022-10-22T19:07:50.420Z,98392.50
2022-10-22T19:12:52.334Z,98389.47
2022-10-22T19:17:54.070Z,98394.88
2022-10-22T19:22:56.798Z,98397.03
2022-10-22T19:27:58.603Z,98399.84
2022-10-22T19:33:00.638Z,98405.69
2022-10-22T19:38:02.526Z,98409.53
2022-10-22T19:43:04.354Z,98410.78
2022-10-22T19:48:06.450Z,98418.44
2022-10-22T19:53:08.194Z,98420.69
2022-10-22T19:58:10.319Z,98422.94
2022-10-22T20:03:14.847Z,98426.97
2022-10-22T20:08:17.346Z,98427.41
2022-10-22T20:13:19.178Z,98426.25
2022-10-22T20:18:22.526Z,98430.28
2022-10-22T20:23:24.223Z,98435.94
2022-10-22T20:28:26.063Z,98437.56
2022-10-22T20:33:27.877Z,98443.59
2022-10-22T20:38:29.712Z,98457.22
2022-10-22T20:43:32.566Z,98464.44
2022-10-22T20:48:34.921Z,98468.22
2022-10-22T20:53:36.626Z,98467.97
2022-10-22T20:58:38.933Z,98466.53
2022-10-22T21:03:40.690Z,98468.88
2022-10-22T21:08:42.537Z,98464.19
2022-10-22T21:13:44.588Z,98470.34
2022-10-22T21:18:47.069Z,98470.63
2022-10-22T21:23:50.365Z,98475.09
2022-10-22T21:28:52.241Z,98479.06
2022-10-22T21:33:54.190Z,98482.38
2022-10-22T21:38:56.026Z,98484.09
2022-10-22T21:43:58.080Z,98481.56
2022-10-22T21:49:02.360Z,98477.06
2022-10-22T21:54:04.712Z,98483.63
2022-10-22T21:59:07.564Z,98481.03
2022-10-22T22:04:09.380Z,98484.91
2022-10-22T22:09:11.363Z,98480.31
2022-10-22T22:14:13.691Z,98487.16
2022-10-22T22:19:15.532Z,98482.75
2022-10-22T22:24:17.566Z,98481.47
2022-10-22T22:29:19.448Z,98476.81
2022-10-22T22:34:21.167Z,98471.94
2022-10-22T22:39:23.628Z,98475.19
2022-10-22T22:44:25.608Z,98479.41
2022-10-22T22:49:27.428Z,98482.19
2022-10-22T22:54:29.344Z,98479.41
2022-10-22T22:59:31.023Z,98481.03
2022-10-22T23:04:32.802Z,98473.84
2022-10-22T23:09:34.957Z,98469.59
2022-10-22T23:14:36.760Z,98463.75
2022-10-22T23:19:38.750Z,98470.50
2022-10-22T23:24:40.511Z,98473.00
2022-10-22T23:29:42.367Z,98470.13
2022-10-22T23:34:44.121Z,98479.09
2022-10-22T23:39:45.866Z,98478.94
2022-10-22T23:44:47.602Z,98475.97
2022-10-22T23:49:49.413Z,98480.84
2022-10-22T23:54:51.272Z,98482.28
2022-10-22T23:59:53.361Z,98481.81
